Time,TemperatureF,DewpointF,PressureIn,WindDirection,WindDirectionDegrees,WindSpeedMPH,WindSpeedGustMPH,Humidity,HourlyPrecipIn,Conditions,Clouds,dailyrainin,SoftwareType,DateUTC
2013-01-31 00:03:00,34.0,31.0,-100.00,West,270,13.0,22.0,89,0.00,,,-99.99,,2013-01-31 05:03:00,
2013-01-31 00:11:00,34.0,31.0,-100.00,West,265,9.0,27.0,88,0.00,,,-99.99,,2013-01-31 05:11:00,
2013-01-31 00:22:00,33.0,30.0,-100.00,WSW,245,10.0,21.0,87,0.00,,,-99.99,,2013-01-31 05:22:00,
2013-01-31 00:32:00,33.0,30.0,-100.00,WSW,245,10.0,21.0,87,0.00,,,-99.99,,2013-01-31 05:32:00,
2013-01-31 00:42:00,33.0,29.0,-100.00,WSW,255,8.0,18.0,83,0.00,,,-99.99,,2013-01-31 05:42:00,
2013-01-31 00:52:00,33.0,29.0,-100.00,WSW,255,8.0,18.0,83,0.00,,,-99.99,,2013-01-31 05:52:00,
2013-01-31 01:01:00,33.0,29.0,-100.00,WSW,255,8.0,18.0,83,0.00,,,-99.99,,2013-01-31 06:01:00,
2013-01-31 01:10:00,33.0,29.0,-100.00,WSW,255,8.0,18.0,83,0.00,,,-99.99,,2013-01-31 06:10:00,
2013-01-31 09:03:00,22.0,17.0,-100.00,WSW,250,10.0,23.0,79,5.08,,,-99.99,,2013-01-31 14:03:00,
2013-01-31 09:11:00,22.0,17.0,-100.00,SW,230,9.0,17.0,79,0.00,,,-99.99,,2013-01-31 14:11:00,
2013-01-31 09:22:00,22.0,15.0,-100.00,SW,230,8.0,18.0,73,0.00,,,-99.99,,2013-01-31 14:22:00,
2013-01-31 09:32:00,22.0,14.0,-100.00,WSW,245,9.0,21.0,70,0.00,,,-99.99,,2013-01-31 14:32:00,
2013-01-31 09:42:00,22.0,14.0,-100.00,SW,230,9.0,18.0,71,0.55,,,-99.99,,2013-01-31 14:42:00,
2013-01-31 09:52:00,22.0,14.0,-100.00,SW,220,9.0,17.0,71,0.00,,,-99.99,,2013-01-31 14:52:00,
2013-01-31 10:03:00,23.0,14.0,-100.00,WSW,245,9.0,18.0,69,0.00,,,-99.99,,2013-01-31 15:03:00,
2013-01-31 10:12:00,23.0,13.0,-100.00,WSW,250,10.0,19.0,65,0.00,,,-99.99,,2013-01-31 15:12:00,
2013-01-31 10:22:00,23.0,12.0,-100.00,WSW,240,9.0,21.0,61,0.00,,,-99.99,,2013-01-31 15:22:00,
2013-01-31 10:32:00,24.0,12.0,-100.00,West,270,9.0,19.0,60,0.00,,,-99.99,,2013-01-31 15:32:00,
2013-01-31 10:42:00,24.0,13.0,-100.00,SW,225,6.0,24.0,60,0.00,,,-99.99,,2013-01-31 15:42:00,
2013-01-31 10:51:00,24.0,13.0,-100.00,SSW,210,10.0,22.0,62,0.00,,,-99.99,,2013-01-31 15:51:00,
2013-01-31 11:03:00,24.0,14.0,-100.00,SW,230,8.0,20.0,63,0.00,,,-99.99,,2013-01-31 16:03:00,
2013-01-31 11:12:00,24.0,13.0,-100.00,WSW,240,8.0,21.0,63,0.00,,,-99.99,,2013-01-31 16:12:00,
2013-01-31 11:22:00,24.0,12.0,-100.00,WSW,245,6.0,14.0,60,0.00,,,-99.99,,2013-01-31 16:22:00,
2013-01-31 11:33:00,23.0,13.0,-100.00,SW,215,10.0,22.0,65,0.00,,,-99.99,,2013-01-31 16:33:00,
2013-01-31 11:42:00,22.0,15.0,-100.00,SW,220,7.0,17.0,72,1.10,,,-99.99,,2013-01-31 16:42:00,
2013-01-31 11:52:00,23.0,16.0,-100.00,WSW,255,7.0,19.0,73,0.00,,,-99.99,,2013-01-31 16:52:00,
2013-01-31 12:03:00,23.0,14.0,-100.00,West,275,8.0,21.0,70,0.55,,,-99.99,,2013-01-31 17:03:00,
2013-01-31 12:12:00,24.0,15.0,-100.00,WSW,240,7.0,21.0,68,0.00,,,-99.99,,2013-01-31 17:12:00,
2013-01-31 12:23:00,24.0,15.0,-100.00,WSW,240,7.0,17.0,67,0.00,,,-99.99,,2013-01-31 17:23:00,
2013-01-31 12:32:00,23.0,14.0,-100.00,SSW,210,9.0,20.0,66,0.00,,,-99.99,,2013-01-31 17:32:00,
2013-01-31 12:43:00,24.0,14.0,-100.00,WSW,240,7.0,17.0,65,0.00,,,-99.99,,2013-01-31 17:43:00,
2013-01-31 12:53:00,25.0,14.0,-100.00,West,265,7.0,17.0,62,0.00,,,-99.99,,2013-01-31 17:53:00,
2013-01-31 13:03:00,25.0,13.0,-100.00,West,265,12.0,23.0,60,0.00,,,-99.99,,2013-01-31 18:03:00,
2013-01-31 13:12:00,25.0,14.0,-100.00,West,260,11.0,22.0,60,0.00,,,-99.99,,2013-01-31 18:12:00,
2013-01-31 13:22:00,26.0,14.0,-100.00,SW,220,9.0,21.0,62,0.00,,,-99.99,,2013-01-31 18:22:00,
2013-01-31 13:32:00,25.0,15.0,-100.00,SW,225,11.0,21.0,64,0.55,,,-99.99,,2013-01-31 18:32:00,
2013-01-31 13:43:00,25.0,15.0,-100.00,WSW,250,9.0,21.0,66,0.00,,,-99.99,,2013-01-31 18:43:00,
2013-01-31 13:52:00,25.0,16.0,-100.00,SW,225,9.0,19.0,67,0.55,,,-99.99,,2013-01-31 18:52:00,
2013-01-31 14:03:00,25.0,16.0,-100.00,WSW,240,7.0,15.0,68,0.00,,,-99.99,,2013-01-31 19:03:00,
2013-01-31 14:12:00,26.0,17.0,-100.00,WSW,250,8.0,17.0,68,0.00,,,-99.99,,2013-01-31 19:12:00,
2013-01-31 14:22:00,26.0,17.0,-100.00,WSW,245,7.0,26.0,66,0.00,,,-99.99,,2013-01-31 19:22:00,
2013-01-31 14:33:00,26.0,17.0,-100.00,West,270,6.0,12.0,67,1.69,,,-99.99,,2013-01-31 19:33:00,
2013-01-31 14:42:00,26.0,18.0,-100.00,West,270,9.0,18.0,70,1.69,,,-99.99,,2013-01-31 19:42:00,
2013-01-31 14:52:00,26.0,18.0,-100.00,West,270,10.0,16.0,73,0.00,,,-99.99,,2013-01-31 19:52:00,
2013-01-31 15:02:00,27.0,19.0,-100.00,West,260,7.0,17.0,72,0.00,,,-99.99,,2013-01-31 20:02:00,
2013-01-31 15:11:00,28.0,19.0,-100.00,West,265,7.0,15.0,65,0.00,,,-99.99,,2013-01-31 20:11:00,
2013-01-31 15:22:00,27.0,17.0,-100.00,SSW,210,11.0,21.0,65,7.36,,,-99.99,,2013-01-31 20:22:00,
2013-01-31 15:32:00,26.0,20.0,-100.00,SSW,205,9.0,19.0,76,0.00,,,-99.99,,2013-01-31 20:32:00,
2013-01-31 15:42:00,26.0,20.0,-100.00,SW,230,9.0,19.0,75,0.55,,,-99.99,,2013-01-31 20:42:00,
2013-01-31 15:52:00,26.0,17.0,-100.00,West,265,10.0,22.0,70,25.51,,,-99.99,,2013-01-31 20:52:00,
2013-01-31 16:02:00,27.0,19.0,-100.00,WSW,245,8.0,17.0,73,0.00,,,-99.99,,2013-01-31 21:02:00,
2013-01-31 16:12:00,27.0,16.0,-100.00,SW,230,12.0,25.0,63,1.69,,,-99.99,,2013-01-31 21:12:00,
2013-01-31 16:22:00,26.0,16.0,-100.00,West,275,11.0,17.0,65,3.39,,,-99.99,,2013-01-31 21:22:00,
2013-01-31 16:32:00,26.0,16.0,-100.00,SW,235,8.0,18.0,66,0.00,,,-99.99,,2013-01-31 21:32:00,
2013-01-31 16:42:00,26.0,15.0,-100.00,SW,220,7.0,24.0,63,0.00,,,-99.99,,2013-01-31 21:42:00,
2013-01-31 16:52:00,25.0,15.0,-100.00,WSW,250,7.0,20.0,62,0.00,,,-99.99,,2013-01-31 21:52:00,
2013-01-31 17:03:00,25.0,14.0,-100.00,WSW,255,7.0,20.0,61,0.00,,,-99.99,,2013-01-31 22:03:00,
2013-01-31 17:11:00,25.0,14.0,-100.00,West,265,8.0,17.0,61,0.00,,,-99.99,,2013-01-31 22:11:00,
2013-01-31 17:22:00,25.0,13.0,-100.00,WNW,285,9.0,14.0,61,0.00,,,-99.99,,2013-01-31 22:22:00,
2013-01-31 17:33:00,25.0,13.0,-100.00,WSW,255,8.0,17.0,61,0.00,,,-99.99,,2013-01-31 22:33:00,
2013-01-31 17:42:00,25.0,13.0,-100.00,WSW,255,9.0,17.0,61,0.00,,,-99.99,,2013-01-31 22:42:00,
2013-01-31 17:51:00,24.0,13.0,-100.00,West,260,7.0,14.0,61,0.00,,,-99.99,,2013-01-31 22:51:00,
2013-01-31 18:03:00,24.0,13.0,-100.00,WSW,250,6.0,18.0,62,0.00,,,-99.99,,2013-01-31 23:03:00,
2013-01-31 18:12:00,24.0,13.0,-100.00,WSW,255,7.0,14.0,62,0.00,,,-99.99,,2013-01-31 23:12:00,
2013-01-31 18:22:00,23.0,13.0,-100.00,SW,230,7.0,17.0,62,0.00,,,-99.99,,2013-01-31 23:22:00,
2013-01-31 18:32:00,23.0,12.0,-100.00,West,260,9.0,21.0,61,0.00,,,-99.99,,2013-01-31 23:32:00,
2013-01-31 18:42:00,23.0,11.0,-100.00,West,280,10.0,16.0,59,0.00,,,-99.99,,2013-01-31 23:42:00,
2013-01-31 18:52:00,23.0,11.0,-100.00,WNW,285,9.0,16.0,59,0.00,,,-99.99,,2013-01-31 23:52:00,
2013-01-31 19:02:00,23.0,11.0,-100.00,West,260,11.0,21.0,59,0.00,,,-99.99,,2013-02-01 00:02:00,
2013-01-31 19:11:00,22.0,11.0,-100.00,West,270,10.0,16.0,60,0.00,,,-99.99,,2013-02-01 00:11:00,
2013-01-31 19:22:00,22.0,11.0,-100.00,West,280,9.0,22.0,60,0.00,,,-99.99,,2013-02-01 00:22:00,
2013-01-31 19:32:00,22.0,11.0,-100.00,West,265,12.0,21.0,61,0.00,,,-99.99,,2013-02-01 00:32:00,
2013-01-31 19:42:00,22.0,10.0,-100.00,WNW,290,9.0,20.0,60,0.00,,,-99.99,,2013-02-01 00:42:00,
2013-01-31 19:51:00,22.0,10.0,-100.00,West,275,14.0,21.0,61,2.83,,,-99.99,,2013-02-01 00:51:00,
2013-01-31 20:01:00,21.0,11.0,-100.00,West,265,8.0,18.0,63,0.00,,,-99.99,,2013-02-01 01:01:00,
2013-01-31 20:11:00,21.0,11.0,-100.00,West,260,7.0,21.0,62,0.00,,,-99.99,,2013-02-01 01:11:00,
2013-01-31 20:21:00,21.0,9.0,-100.00,West,280,15.0,23.0,58,0.00,,,-99.99,,2013-02-01 01:21:00,
2013-01-31 20:32:00,21.0,9.0,-100.00,West,270,9.0,21.0,58,0.00,,,-99.99,,2013-02-01 01:32:00,
2013-01-31 20:42:00,21.0,10.0,-100.00,West,270,9.0,24.0,63,0.00,,,-99.99,,2013-02-01 01:42:00,
2013-01-31 20:52:00,20.0,12.0,-100.00,West,280,9.0,19.0,70,0.00,,,-99.99,,2013-02-01 01:52:00,
2013-01-31 21:02:00,19.0,12.0,-100.00,WNW,285,12.0,18.0,73,0.00,,,-99.99,,2013-02-01 02:02:00,
2013-01-31 21:11:00,19.0,11.0,-100.00,WNW,285,14.0,22.0,73,0.00,,,-99.99,,2013-02-01 02:11:00,
2013-01-31 21:21:00,19.0,11.0,-100.00,West,275,9.0,20.0,71,0.00,,,-99.99,,2013-02-01 02:21:00,
2013-01-31 21:32:00,18.0,10.0,-100.00,West,270,15.0,21.0,68,0.00,,,-99.99,,2013-02-01 02:32:00,
2013-01-31 21:42:00,18.0,9.0,-100.00,West,275,10.0,22.0,65,0.00,,,-99.99,,2013-02-01 02:42:00,
2013-01-31 21:52:00,18.0,9.0,-100.00,West,270,9.0,17.0,65,0.00,,,-99.99,,2013-02-01 02:52:00,
2013-01-31 22:02:00,18.0,9.0,-100.00,West,275,7.0,16.0,65,0.00,,,-99.99,,2013-02-01 03:02:00,
2013-01-31 22:12:00,18.0,9.0,-100.00,WNW,285,12.0,17.0,65,0.00,,,-99.99,,2013-02-01 03:12:00,
2013-01-31 22:21:00,18.0,9.0,-100.00,West,280,7.0,11.0,66,0.00,,,-99.99,,2013-02-01 03:21:00,
2013-01-31 22:33:00,18.0,9.0,-100.00,West,275,9.0,13.0,65,0.00,,,-99.99,,2013-02-01 03:33:00,
2013-01-31 22:42:00,18.0,8.0,-100.00,West,275,12.0,18.0,65,0.00,,,-99.99,,2013-02-01 03:42:00,
2013-01-31 22:51:00,18.0,7.0,-100.00,West,280,12.0,19.0,62,0.00,,,-99.99,,2013-02-01 03:51:00,
2013-01-31 23:02:00,18.0,6.0,-100.00,WNW,285,12.0,17.0,60,0.00,,,-99.99,,2013-02-01 04:02:00,
2013-01-31 23:11:00,17.0,6.0,-100.00,West,280,10.0,19.0,60,0.00,,,-99.99,,2013-02-01 04:11:00,
2013-01-31 23:21:00,17.0,6.0,-100.00,WNW,285,9.0,17.0,61,0.00,,,-99.99,,2013-02-01 04:21:00,
2013-01-31 23:32:00,17.0,6.0,-100.00,West,280,13.0,19.0,62,0.00,,,-99.99,,2013-02-01 04:32:00,
2013-01-31 23:41:00,17.0,7.0,-100.00,WNW,285,12.0,17.0,64,0.00,,,-99.99,,2013-02-01 04:41:00,
2013-01-31 23:51:00,17.0,7.0,-100.00,West,265,12.0,17.0,65,0.00,,,-99.99,,2013-02-01 04:51:00,